Aviation Digital Data Service (ADDS)

Output produced by METARs form (1012 UTC 14 December 2017)
found at http://www.aviationweather.gov/adds/metars/
 
KATL 140731Z 1408/1512 26008KT P6SM SKC 
     FM141500 29010KT P6SM FEW070 
     FM150000 31006KT P6SM SKC 
     FM150500 31003KT P6SM SKC